Yukon, West Virginia
Current Conditions -  °F | °C
As of 8:15 PM on Tuesday 21 Oct 2014 (Local Time) from KJFZ Reporting Station
Overcast Overcast  
Wind Chill: 44°   Ceiling: 2600
Heat Index: 47°   Visibility: 10mi
Dew Point: 41°   Wind: 7mph
Humidity: 78%   Direction: 330°NNW
Pressure: 30.05"   Gusts: NA
Location:  37.32°N, 81.7°W
Report Text: KJFZ 220015Z AUTO 33006KT 10SM SCT017 BKN026 OVC050 09/05 A3005 RMK AO2 T00850049
Loading
Personal Weather Stations






























Interactive Weather Map
Tropical Storm Tracking
New forecast layout! Learn more

10-Day Weather Forecast

Advertisements
Track Severe Weather on mobile